Time;durP1;ratioP1;P1;durP2;ratioP2;P2;SDS_P1;SDS_P2;PMS_P1;PMS_P2;Temp;Humidity;BMP_temperature;BMP_pressure;BME280_temperature;BME280_humidity;BME280_pressure;Samples;Min_cycle;Max_cycle;Signal;HPM_P1;HPM_P2
2022/06/11 00:00:35;;;;;;;15.45;14.75;;;;;;;;;;5132997;27;20727;-72
2022/06/11 00:03:02;;;;;;;14.82;14.32;;;;;;;;;;5133341;27;20245;-71
2022/06/11 00:05:29;;;;;;;14.10;13.60;;;;;;;;;;5132933;28;20203;-72
2022/06/11 00:07:57;;;;;;;14.10;13.60;;;;;;;;;;5132872;28;20224;-72
2022/06/11 00:10:25;;;;;;;13.60;13.10;;;;;;;;;;5132957;28;20207;-72
2022/06/11 00:12:52;;;;;;;14.93;14.43;;;;;;;;;;5133322;28;20232;-72
2022/06/11 00:15:19;;;;;;;14.80;14.30;;;;;;;;;;5132952;28;20184;-71
2022/06/11 00:17:46;;;;;;;13.93;13.43;;;;;;;;;;5132825;28;20192;-72
2022/06/11 00:20:14;;;;;;;14.40;13.90;;;;;;;;;;5132865;28;20197;-72
2022/06/11 00:22:41;;;;;;;14.15;13.65;;;;;;;;;;5132823;28;20208;-71
2022/06/11 00:25:08;;;;;;;15.40;14.80;;;;;;;;;;5132796;28;20203;-72
2022/06/11 00:27:37;;;;;;;14.90;14.30;;;;;;;;;;5132704;28;20701;-72
2022/06/11 00:30:04;;;;;;;14.32;13.82;;;;;;;;;;5132738;28;20193;-72
2022/06/11 00:32:31;;;;;;;14.10;13.60;;;;;;;;;;5132769;28;20617;-72
2022/06/11 00:35:02;;;;;;;14.10;13.60;;;;;;;;;;5132632;28;20196;-72
2022/06/11 00:37:29;;;;;;;14.57;13.98;;;;;;;;;;5133122;28;20264;-72
2022/06/11 00:39:56;;;;;;;13.07;12.57;;;;;;;;;;5132621;28;20193;-72
2022/06/11 00:42:26;;;;;;;13.80;13.30;;;;;;;;;;5132635;28;20196;-72
2022/06/11 00:45:08;;;;;;;13.75;13.25;;;;;;;;;;5133515;27;20719;-72
2022/06/11 00:47:36;;;;;;;13.13;12.63;;;;;;;;;;5136378;27;20232;-72
2022/06/11 00:50:04;;;;;;;12.90;12.43;;;;;;;;;;5136577;27;20657;-72
2022/06/11 00:52:32;;;;;;;13.25;12.75;;;;;;;;;;5136519;27;20193;-72
2022/06/11 00:55:02;;;;;;;13.02;12.63;;;;;;;;;;5136501;27;20197;-72
2022/06/11 00:57:31;;;;;;;13.27;12.80;;;;;;;;;;5136454;27;20688;-73
2022/06/11 01:00:02;;;;;;;13.05;12.65;;;;;;;;;;5136391;27;20193;-72
2022/06/11 01:02:29;;;;;;;13.40;12.90;;;;;;;;;;5136702;27;20598;-72
2022/06/11 01:04:59;;;;;;;11.93;11.52;;;;;;;;;;5136264;27;20189;-72
2022/06/11 01:07:44;;;;;;;12.52;12.13;;;;;;;;;;5136138;27;20216;-72
2022/06/11 01:10:17;;;;;;;13.75;13.25;;;;;;;;;;5136575;27;20184;-72
2022/06/11 01:12:49;;;;;;;13.75;13.25;;;;;;;;;;5135915;27;20228;-71
2022/06/11 01:15:18;;;;;;;13.38;12.98;;;;;;;;;;5136138;27;20228;-72
2022/06/11 01:17:51;;;;;;;13.88;13.38;;;;;;;;;;5135969;27;20730;-72
2022/06/11 01:20:29;;;;;;;13.85;13.35;;;;;;;;;;5136058;27;20662;-71
2022/06/11 01:23:10;;;;;;;13.88;13.38;;;;;;;;;;5135967;27;20185;-71
2022/06/11 01:25:44;;;;;;;14.45;13.95;;;;;;;;;;5136199;27;20268;-71
2022/06/11 01:28:23;;;;;;;14.00;13.50;;;;;;;;;;5136129;27;20216;-71
2022/06/11 01:30:55;;;;;;;13.93;13.43;;;;;;;;;;5135859;27;20184;-71
2022/06/11 01:33:26;;;;;;;13.90;13.40;;;;;;;;;;5136148;27;20181;-70
2022/06/11 01:35:58;;;;;;;14.02;13.52;;;;;;;;;;5136040;27;20184;-71
2022/06/11 01:38:27;;;;;;;14.07;13.57;;;;;;;;;;5135689;27;20681;-70
2022/06/11 01:40:57;;;;;;;14.60;14.10;;;;;;;;;;5135629;27;20193;-70
2022/06/11 01:43:29;;;;;;;14.50;14.00;;;;;;;;;;5135582;27;20185;-71
2022/06/11 01:45:57;;;;;;;14.20;13.70;;;;;;;;;;5135830;27;20325;-71
2022/06/11 01:48:26;;;;;;;14.20;13.70;;;;;;;;;;5135619;27;20256;-71
2022/06/11 01:51:08;;;;;;;13.85;13.35;;;;;;;;;;5135388;27;20662;-71
2022/06/11 01:53:50;;;;;;;14.02;13.52;;;;;;;;;;5135377;27;20249;-71
2022/06/11 01:56:36;;;;;;;13.90;13.40;;;;;;;;;;5132053;27;20245;-71
2022/06/11 01:59:24;;;;;;;13.50;13.10;;;;;;;;;;5135321;27;20192;-70
2022/06/11 02:01:57;;;;;;;13.55;13.15;;;;;;;;;;5128599;27;20723;-71
2022/06/11 02:04:40;;;;;;;13.57;13.18;;;;;;;;;;5135148;27;20189;-71
2022/06/11 02:07:13;;;;;;;12.95;12.55;;;;;;;;;;5135046;27;20233;-71
2022/06/11 02:09:42;;;;;;;13.77;13.38;;;;;;;;;;5135036;27;20241;-71
2022/06/11 02:12:14;;;;;;;14.15;13.65;;;;;;;;;;5134996;27;20203;-71
2022/06/11 02:14:45;;;;;;;14.15;13.65;;;;;;;;;;5134936;27;20188;-71
2022/06/11 02:17:15;;;;;;;14.60;14.10;;;;;;;;;;5134903;27;20188;-71
2022/06/11 02:19:44;;;;;;;15.23;14.73;;;;;;;;;;5134854;27;20231;-71
2022/06/11 02:22:13;;;;;;;15.07;14.57;;;;;;;;;;5134806;27;20192;-71
2022/06/11 02:24:42;;;;;;;15.10;14.60;;;;;;;;;;5135056;27;20199;-71
2022/06/11 02:27:12;;;;;;;15.20;14.70;;;;;;;;;;5134570;27;20193;-71
2022/06/11 02:29:39;;;;;;;15.23;14.63;;;;;;;;;;5134952;27;20192;-71
2022/06/11 02:32:07;;;;;;;13.73;13.23;;;;;;;;;;5134534;27;20211;-71
2022/06/11 02:34:38;;;;;;;15.80;15.20;;;;;;;;;;5134525;27;20245;-71
2022/06/11 02:37:08;;;;;;;16.33;15.63;;;;;;;;;;5134536;27;20639;-71
2022/06/11 02:39:38;;;;;;;16.15;15.45;;;;;;;;;;5134483;27;20257;-71
2022/06/11 02:42:06;;;;;;;16.42;15.73;;;;;;;;;;5134672;27;20197;-71
2022/06/11 02:44:33;;;;;;;16.05;15.35;;;;;;;;;;5134400;27;20661;-71
2022/06/11 02:47:00;;;;;;;15.50;14.90;;;;;;;;;;5134294;27;20565;-71
2022/06/11 02:49:28;;;;;;;15.07;14.48;;;;;;;;;;5134480;27;20289;-71
2022/06/11 02:51:58;;;;;;;15.95;15.35;;;;;;;;;;5134217;27;20661;-71
2022/06/11 02:54:26;;;;;;;16.60;15.90;;;;;;;;;;5134695;27;20197;-70
2022/06/11 02:56:54;;;;;;;16.20;15.50;;;;;;;;;;5134132;27;20232;-71
2022/06/11 02:59:23;;;;;;;16.67;15.98;;;;;;;;;;5134059;27;20662;-70
2022/06/11 03:01:50;;;;;;;15.80;15.20;;;;;;;;;;5133985;27;20249;-70
2022/06/11 03:04:17;;;;;;;15.30;14.70;;;;;;;;;;5134288;27;20633;-70
2022/06/11 03:06:44;;;;;;;15.52;14.93;;;;;;;;;;5134153;27;20245;-71
2022/06/11 03:09:15;;;;;;;15.77;15.18;;;;;;;;;;5133193;27;20717;-71
2022/06/11 03:11:42;;;;;;;15.38;14.77;;;;;;;;;;5133826;27;20189;-71
2022/06/11 03:14:09;;;;;;;15.30;14.70;;;;;;;;;;5133649;27;20306;-71
2022/06/11 03:16:37;;;;;;;15.00;14.40;;;;;;;;;;5133999;27;20192;-71
2022/06/11 03:19:04;;;;;;;14.40;13.90;;;;;;;;;;5133661;27;20200;-71
2022/06/11 03:21:31;;;;;;;14.50;14.00;;;;;;;;;;5133640;27;20192;-70
2022/06/11 03:23:58;;;;;;;14.88;14.27;;;;;;;;;;5133562;27;20253;-70
2022/06/11 03:26:26;;;;;;;14.55;14.05;;;;;;;;;;5133561;27;20252;-71
2022/06/11 03:28:53;;;;;;;14.95;14.43;;;;;;;;;;5133708;27;20235;-70
2022/06/11 03:31:20;;;;;;;15.32;14.73;;;;;;;;;;5133479;27;20677;-71
2022/06/11 03:33:47;;;;;;;15.63;15.02;;;;;;;;;;5133424;27;20199;-71
2022/06/11 03:36:16;;;;;;;14.38;13.88;;;;;;;;;;5133386;27;20654;-71
2022/06/11 03:38:43;;;;;;;14.75;14.25;;;;;;;;;;5133375;27;20249;-71
2022/06/11 03:41:10;;;;;;;15.80;15.20;;;;;;;;;;5133324;27;20271;-71
2022/06/11 03:43:39;;;;;;;16.23;15.63;;;;;;;;;;5133282;27;20207;-71
2022/06/11 03:46:07;;;;;;;16.60;16.00;;;;;;;;;;5133214;27;20197;-72
2022/06/11 03:48:34;;;;;;;15.23;14.73;;;;;;;;;;5133448;27;20227;-71
2022/06/11 03:51:01;;;;;;;15.20;14.70;;;;;;;;;;5133498;27;20261;-71
2022/06/11 03:53:29;;;;;;;15.52;15.00;;;;;;;;;;5133433;27;20250;-71
2022/06/11 03:55:56;;;;;;;14.68;14.18;;;;;;;;;;5133113;27;20427;-71
2022/06/11 03:58:24;;;;;;;15.85;15.35;;;;;;;;;;5133370;27;20275;-71
2022/06/11 04:03:37;;;;;;;14.15;13.65;;;;;;;;;;5133436;27;20859;-71
2022/06/11 04:06:05;;;;;;;14.80;14.30;;;;;;;;;;5132990;27;20597;-71
2022/06/11 04:08:32;;;;;;;14.63;14.13;;;;;;;;;;5132820;28;20231;-71
2022/06/11 04:11:00;;;;;;;14.70;14.20;;;;;;;;;;5132931;28;20192;-71
2022/06/11 04:13:28;;;;;;;14.45;13.95;;;;;;;;;;5132852;28;20281;-71
2022/06/11 04:15:57;;;;;;;14.90;14.40;;;;;;;;;;5132860;28;20218;-71
2022/06/11 04:18:27;;;;;;;14.75;14.25;;;;;;;;;;5132957;27;20196;-71
2022/06/11 04:20:55;;;;;;;14.50;14.00;;;;;;;;;;5137116;27;20272;-71
2022/06/11 04:23:24;;;;;;;15.00;14.50;;;;;;;;;;5137109;27;20199;-71
2022/06/11 04:25:51;;;;;;;14.80;14.30;;;;;;;;;;5137322;27;20192;-71
2022/06/11 04:28:18;;;;;;;15.43;14.85;;;;;;;;;;5136939;27;20231;-71
2022/06/11 04:30:45;;;;;;;16.30;15.70;;;;;;;;;;5137472;27;20241;-71
2022/06/11 04:33:14;;;;;;;16.45;15.75;;;;;;;;;;5136915;27;20192;-72
2022/06/11 04:35:40;;;;;;;16.80;16.13;;;;;;;;;;5136889;27;20241;-72
2022/06/11 04:38:07;;;;;;;17.15;16.45;;;;;;;;;;5136798;27;20250;-72
2022/06/11 04:40:35;;;;;;;18.08;17.38;;;;;;;;;;5136826;27;20654;-72
2022/06/11 04:43:01;;;;;;;16.42;15.82;;;;;;;;;;5136723;27;20197;-73
2022/06/11 04:45:28;;;;;;;15.88;15.38;;;;;;;;;;5136993;27;20200;-73
2022/06/11 04:47:56;;;;;;;16.55;15.95;;;;;;;;;;5137688;27;20257;-72
2022/06/11 04:50:24;;;;;;;17.23;16.63;;;;;;;;;;5136585;27;20196;-73
2022/06/11 04:52:51;;;;;;;16.42;15.82;;;;;;;;;;5136544;27;20249;-73
2022/06/11 04:55:18;;;;;;;16.17;15.57;;;;;;;;;;5136456;27;20681;-73
2022/06/11 04:57:45;;;;;;;14.65;14.18;;;;;;;;;;5136523;27;20196;-73
2022/06/11 05:00:14;;;;;;;13.65;13.25;;;;;;;;;;5136428;27;20654;-73
2022/06/11 05:02:41;;;;;;;13.38;12.98;;;;;;;;;;5136355;27;20279;-73
2022/06/11 05:05:09;;;;;;;13.25;12.85;;;;;;;;;;5136339;27;20228;-73
2022/06/11 05:07:38;;;;;;;14.38;13.88;;;;;;;;;;5136214;27;20197;-74
2022/06/11 05:10:05;;;;;;;13.18;12.77;;;;;;;;;;5136141;27;20706;-74
2022/06/11 05:12:32;;;;;;;13.70;13.30;;;;;;;;;;5135933;27;20232;-73
2022/06/11 05:14:59;;;;;;;13.80;13.30;;;;;;;;;;5136432;27;20291;-74
2022/06/11 05:17:26;;;;;;;14.60;14.10;;;;;;;;;;5136118;27;20799;-74
2022/06/11 05:19:53;;;;;;;14.30;13.80;;;;;;;;;;5136012;27;20706;-73
2022/06/11 05:22:20;;;;;;;13.40;13.00;;;;;;;;;;5135971;27;20636;-73
2022/06/11 05:24:48;;;;;;;13.45;13.05;;;;;;;;;;5135886;27;20192;-73
2022/06/11 05:27:16;;;;;;;13.05;12.65;;;;;;;;;;5136209;27;20256;-73
2022/06/11 05:29:48;;;;;;;12.80;12.40;;;;;;;;;;5135739;27;20220;-74
2022/06/11 05:32:16;;;;;;;13.05;12.65;;;;;;;;;;5135909;27;20260;-74
2022/06/11 05:34:43;;;;;;;12.40;12.00;;;;;;;;;;5135749;27;20201;-75
2022/06/11 05:37:10;;;;;;;13.00;12.60;;;;;;;;;;5135650;27;20192;-75
2022/06/11 05:39:37;;;;;;;12.77;12.38;;;;;;;;;;5135672;27;20228;-75
2022/06/11 05:42:06;;;;;;;13.00;12.60;;;;;;;;;;5135557;27;20196;-75
2022/06/11 05:44:33;;;;;;;13.88;13.38;;;;;;;;;;5135560;27;20199;-75
2022/06/11 05:47:00;;;;;;;13.70;13.20;;;;;;;;;;5135506;27;20189;-74
2022/06/11 05:49:30;;;;;;;13.57;13.18;;;;;;;;;;5135381;27;20232;-75
2022/06/11 05:52:00;;;;;;;14.45;13.95;;;;;;;;;;5135410;27;20279;-74
2022/06/11 05:54:30;;;;;;;14.32;13.82;;;;;;;;;;5135407;27;20185;-74
2022/06/11 05:56:57;;;;;;;14.48;13.98;;;;;;;;;;5135346;27;20192;-74
2022/06/11 05:59:29;;;;;;;14.05;13.55;;;;;;;;;;5135223;27;20196;-75
2022/06/11 06:01:58;;;;;;;14.10;13.60;;;;;;;;;;5135571;27;20696;-75
2022/06/11 06:04:25;;;;;;;14.48;13.98;;;;;;;;;;5135145;27;20320;-75
2022/06/11 06:06:52;;;;;;;14.20;13.70;;;;;;;;;;5135112;27;20188;-74
2022/06/11 06:09:19;;;;;;;14.70;14.20;;;;;;;;;;5135314;27;20258;-75
2022/06/11 06:11:46;;;;;;;14.70;14.20;;;;;;;;;;5134962;27;20226;-75
2022/06/11 06:14:13;;;;;;;14.15;13.65;;;;;;;;;;5134828;27;20315;-76
2022/06/11 06:16:41;;;;;;;14.60;14.10;;;;;;;;;;5134876;27;20567;-73
2022/06/11 06:19:08;;;;;;;13.80;13.40;;;;;;;;;;5134854;27;20685;-73
2022/06/11 06:21:37;;;;;;;12.60;12.20;;;;;;;;;;5135159;27;20215;-73
2022/06/11 06:24:04;;;;;;;13.43;13.02;;;;;;;;;;5134795;27;20776;-73
2022/06/11 06:26:32;;;;;;;14.52;14.02;;;;;;;;;;5135111;27;20590;-74
2022/06/11 06:28:59;;;;;;;14.75;14.25;;;;;;;;;;5134574;27;20234;-74
2022/06/11 06:31:25;;;;;;;14.60;14.10;;;;;;;;;;5134632;27;20189;-74
2022/06/11 06:33:58;;;;;;;14.30;13.80;;;;;;;;;;5135384;27;20658;-74
2022/06/11 06:36:25;;;;;;;15.60;15.00;;;;;;;;;;5134927;27;20185;-74
2022/06/11 06:38:52;;;;;;;15.30;14.70;;;;;;;;;;5134448;27;20206;-74
2022/06/11 06:41:19;;;;;;;16.42;15.73;;;;;;;;;;5134420;27;20271;-74
2022/06/11 06:43:48;;;;;;;16.17;15.57;;;;;;;;;;5133293;27;20572;-74
2022/06/11 06:46:15;;;;;;;17.77;17.08;;;;;;;;;;5134333;27;20192;-74
2022/06/11 06:48:43;;;;;;;17.55;16.85;;;;;;;;;;5134208;27;20784;-74
2022/06/11 06:51:12;;;;;;;18.38;17.58;;;;;;;;;;5134161;27;20275;-74
2022/06/11 06:53:39;;;;;;;18.83;17.95;;;;;;;;;;5134190;27;20279;-74
2022/06/11 06:56:07;;;;;;;18.52;17.73;;;;;;;;;;5134165;27;20231;-73
2022/06/11 06:58:34;;;;;;;17.48;16.77;;;;;;;;;;5134106;27;20211;-74
2022/06/11 07:01:02;;;;;;;16.65;16.00;;;;;;;;;;5134359;27;20189;-73
2022/06/11 07:03:29;;;;;;;15.60;15.00;;;;;;;;;;5133936;27;20207;-74
2022/06/11 07:05:56;;;;;;;14.10;13.60;;;;;;;;;;5133973;27;20629;-74
2022/06/11 07:08:24;;;;;;;13.90;13.20;;;;;;;;;;5133887;27;20658;-73
2022/06/11 07:10:52;;;;;;;15.48;14.57;;;;;;;;;;5134096;27;20220;-72
2022/06/11 07:13:19;;;;;;;17.65;16.45;;;;;;;;;;5133563;27;20239;-72
2022/06/11 07:15:48;;;;;;;19.08;17.67;;;;;;;;;;5134025;27;20200;-73
2022/06/11 07:18:18;;;;;;;18.65;17.35;;;;;;;;;;5134053;27;20192;-73
2022/06/11 07:20:46;;;;;;;19.95;18.55;;;;;;;;;;5133949;27;20197;-73
2022/06/11 07:23:15;;;;;;;20.25;18.75;;;;;;;;;;5133665;27;20673;-72
2022/06/11 07:25:44;;;;;;;22.27;20.67;;;;;;;;;;5133552;27;20249;-72
2022/06/11 07:28:16;;;;;;;18.60;17.40;;;;;;;;;;5133527;27;20196;-72
2022/06/11 07:30:44;;;;;;;18.52;17.33;;;;;;;;;;5133424;27;20697;-72
2022/06/11 07:33:13;;;;;;;17.95;16.85;;;;;;;;;;5133823;27;20197;-72
2022/06/11 07:35:40;;;;;;;19.20;17.90;;;;;;;;;;5133414;27;20650;-73
2022/06/11 07:38:09;;;;;;;21.20;19.70;;;;;;;;;;5133374;27;20188;-72
2022/06/11 07:40:36;;;;;;;21.15;19.65;;;;;;;;;;5133333;27;20666;-74
2022/06/11 07:43:06;;;;;;;21.30;19.80;;;;;;;;;;5133306;27;20193;-73
2022/06/11 07:45:33;;;;;;;20.15;18.75;;;;;;;;;;5133591;27;20563;-74
2022/06/11 07:48:01;;;;;;;22.55;20.95;;;;;;;;;;5133191;27;20596;-73
2022/06/11 07:50:29;;;;;;;23.60;21.80;;;;;;;;;;5133455;27;20228;-74
2022/06/11 07:52:56;;;;;;;19.92;18.52;;;;;;;;;;5133173;27;20192;-74
2022/06/11 07:55:24;;;;;;;20.65;19.25;;;;;;;;;;5132764;27;20686;-75
2022/06/11 07:57:51;;;;;;;21.10;19.60;;;;;;;;;;5133168;27;20199;-74
2022/06/11 08:00:21;;;;;;;20.02;18.65;;;;;;;;;;5132992;27;20551;-74
2022/06/11 08:02:48;;;;;;;21.55;20.05;;;;;;;;;;5133124;27;20642;-74
2022/06/11 08:05:15;;;;;;;20.75;19.35;;;;;;;;;;5133340;27;20203;-74
2022/06/11 08:07:42;;;;;;;20.42;19.05;;;;;;;;;;5132989;27;20192;-74
2022/06/11 08:10:10;;;;;;;19.65;18.35;;;;;;;;;;5132869;28;20227;-76
2022/06/11 08:12:37;;;;;;;20.10;18.80;;;;;;;;;;5132807;28;20228;-75
2022/06/11 08:15:06;;;;;;;19.83;18.58;;;;;;;;;;5132997;28;20650;-72
2022/06/11 08:17:35;;;;;;;17.55;16.45;;;;;;;;;;5132877;28;20196;-76
2022/06/11 08:20:03;;;;;;;18.40;17.30;;;;;;;;;;5133184;28;20345;-72
2022/06/11 08:22:30;;;;;;;17.00;16.00;;;;;;;;;;5132871;28;20204;-76
2022/06/11 08:24:57;;;;;;;16.92;15.93;;;;;;;;;;5132757;28;20279;-74
2022/06/11 08:27:25;;;;;;;16.38;15.48;;;;;;;;;;5132847;28;20200;-76
2022/06/11 08:29:52;;;;;;;15.43;14.63;;;;;;;;;;5132685;28;20223;-77
2022/06/11 08:32:19;;;;;;;18.00;16.90;;;;;;;;;;5132755;28;20196;-76
2022/06/11 08:34:47;;;;;;;16.80;15.80;;;;;;;;;;5132810;28;20196;-77
2022/06/11 08:37:14;;;;;;;16.00;15.10;;;;;;;;;;5132744;28;20200;-77
2022/06/11 08:39:42;;;;;;;17.13;16.23;;;;;;;;;;5132674;28;20200;-77
2022/06/11 08:42:21;;;;;;;18.67;17.58;;;;;;;;;;5132664;28;20188;-77
2022/06/11 08:44:48;;;;;;;17.30;16.30;;;;;;;;;;5132736;28;20654;-77
2022/06/11 08:47:15;;;;;;;17.25;16.25;;;;;;;;;;5132907;28;20200;-77
2022/06/11 08:49:44;;;;;;;17.25;16.35;;;;;;;;;;5132529;28;20276;-77
2022/06/11 08:52:14;;;;;;;15.65;14.85;;;;;;;;;;5132609;28;20192;-77
2022/06/11 08:54:42;;;;;;;15.55;14.75;;;;;;;;;;5132897;28;20197;-77
2022/06/11 08:57:14;;;;;;;17.73;16.73;;;;;;;;;;5132526;28;20196;-77
2022/06/11 08:59:48;;;;;;;17.33;16.42;;;;;;;;;;5132599;28;20763;-77
2022/06/11 09:02:23;;;;;;;16.70;15.80;;;;;;;;;;5132825;28;20579;-77
2022/06/11 09:05:05;;;;;;;16.83;15.93;;;;;;;;;;5132498;27;20188;-78
2022/06/11 09:07:38;;;;;;;19.00;17.90;;;;;;;;;;5135904;27;20677;-77
2022/06/11 09:10:15;;;;;;;20.08;18.88;;;;;;;;;;5136247;27;20694;-78
2022/06/11 09:12:54;;;;;;;18.92;17.83;;;;;;;;;;5136002;27;20232;-78
2022/06/11 09:15:25;;;;;;;20.75;19.55;;;;;;;;;;5136169;27;20658;-78
2022/06/11 09:18:10;;;;;;;21.05;19.75;;;;;;;;;;5136422;27;20185;-75
2022/06/11 09:20:43;;;;;;;18.83;17.83;;;;;;;;;;5136057;27;20212;-79
2022/06/11 09:23:28;;;;;;;19.85;18.75;;;;;;;;;;5136360;27;20192;-78
2022/06/11 09:26:01;;;;;;;19.65;18.55;;;;;;;;;;5135973;27;20191;-79
2022/06/11 09:28:34;;;;;;;17.90;17.00;;;;;;;;;;5135928;27;20189;-78
2022/06/11 09:31:08;;;;;;;16.60;15.80;;;;;;;;;;5135748;27;20212;-79
2022/06/11 09:33:40;;;;;;;17.05;16.25;;;;;;;;;;5136204;27;20184;-79
2022/06/11 09:36:12;;;;;;;16.02;15.32;;;;;;;;;;5136053;27;20701;-79
2022/06/11 09:38:48;;;;;;;16.90;15.90;;;;;;;;;;5135764;27;20189;-79
2022/06/11 09:41:21;;;;;;;16.50;15.60;;;;;;;;;;5135973;27;20184;-79
2022/06/11 09:43:51;;;;;;;15.35;14.55;;;;;;;;;;5135612;27;20184;-78
2022/06/11 09:46:23;;;;;;;15.23;14.50;;;;;;;;;;5135580;27;20634;-78
2022/06/11 09:49:04;;;;;;;15.20;14.50;;;;;;;;;;5135562;27;20185;-78
2022/06/11 09:51:34;;;;;;;14.10;13.50;;;;;;;;;;5135757;27;20636;-79
2022/06/11 09:54:09;;;;;;;13.50;12.90;;;;;;;;;;5135723;27;20200;-78
2022/06/11 09:56:38;;;;;;;13.70;13.10;;;;;;;;;;5135379;27;20194;-77
2022/06/11 09:59:13;;;;;;;12.80;12.30;;;;;;;;;;5135709;27;20196;-78
2022/06/11 10:01:45;;;;;;;13.95;13.35;;;;;;;;;;5135291;27;20287;-78
2022/06/11 10:04:12;;;;;;;14.88;14.18;;;;;;;;;;5135241;27;20642;-73
2022/06/11 10:06:42;;;;;;;14.80;14.10;;;;;;;;;;5135494;27;20204;-74
2022/06/11 10:09:16;;;;;;;14.98;14.27;;;;;;;;;;5135127;27;20196;-75
2022/06/11 10:11:45;;;;;;;15.63;14.82;;;;;;;;;;5135055;27;20255;-78
2022/06/11 10:14:32;;;;;;;16.63;15.75;;;;;;;;;;5135134;27;20232;-79
2022/06/11 10:17:02;;;;;;;16.80;15.90;;;;;;;;;;5137597;27;20192;-75
2022/06/11 10:19:32;;;;;;;15.75;14.95;;;;;;;;;;5134931;27;20184;-75
2022/06/11 10:22:01;;;;;;;15.90;15.10;;;;;;;;;;5135223;27;20185;-75
2022/06/11 10:24:32;;;;;;;16.90;16.00;;;;;;;;;;5134856;27;20196;-75
2022/06/11 10:27:01;;;;;;;17.95;16.95;;;;;;;;;;5135101;27;20832;-75
2022/06/11 10:29:31;;;;;;;17.85;16.85;;;;;;;;;;5135071;27;20295;-71
2022/06/11 10:32:02;;;;;;;18.63;17.63;;;;;;;;;;5134642;27;20666;-71
2022/06/11 10:34:31;;;;;;;18.45;17.45;;;;;;;;;;5134629;27;20193;-73
2022/06/11 10:37:00;;;;;;;18.77;17.77;;;;;;;;;;5134908;27;20196;-73
2022/06/11 10:39:29;;;;;;;19.58;18.48;;;;;;;;;;5134539;27;20672;-73
2022/06/11 10:42:02;;;;;;;19.50;18.50;;;;;;;;;;5134424;27;20200;-72
2022/06/11 10:44:36;;;;;;;19.73;18.63;;;;;;;;;;5134519;27;20185;-76
2022/06/11 10:47:10;;;;;;;18.90;17.90;;;;;;;;;;5134692;27;20218;-74
2022/06/11 10:49:37;;;;;;;18.95;17.85;;;;;;;;;;5134332;27;20206;-76
2022/06/11 10:52:06;;;;;;;20.60;19.30;;;;;;;;;;5134225;27;20672;-73
2022/06/11 10:54:33;;;;;;;20.15;18.95;;;;;;;;;;5134246;27;20192;-80
2022/06/11 10:57:05;;;;;;;21.40;20.20;;;;;;;;;;5134204;27;20192;-75
2022/06/11 10:59:34;;;;;;;20.25;19.05;;;;;;;;;;5134174;27;20237;-77
2022/06/11 11:02:03;;;;;;;19.92;18.75;;;;;;;;;;5134416;27;20289;-75
2022/06/11 11:04:41;;;;;;;18.85;17.75;;;;;;;;;;5134062;27;20203;-74
2022/06/11 11:07:10;;;;;;;19.30;18.20;;;;;;;;;;5134285;27;20204;-76
2022/06/11 11:09:37;;;;;;;20.30;19.10;;;;;;;;;;5133900;27;20615;-75
2022/06/11 11:12:07;;;;;;;19.73;18.52;;;;;;;;;;5133771;27;20311;-74
2022/06/11 11:14:38;;;;;;;19.38;18.27;;;;;;;;;;5133714;27;20240;-76
2022/06/11 11:17:06;;;;;;;17.85;16.85;;;;;;;;;;5134172;27;20257;-75
2022/06/11 11:19:34;;;;;;;20.15;18.85;;;;;;;;;;5133678;27;20203;-75
2022/06/11 11:22:10;;;;;;;21.08;19.67;;;;;;;;;;5133670;27;20201;-75
2022/06/11 11:24:40;;;;;;;23.10;21.60;;;;;;;;;;5133935;27;20181;-75
2022/06/11 11:27:15;;;;;;;21.50;20.20;;;;;;;;;;5133943;27;20199;-74
2022/06/11 11:29:50;;;;;;;20.75;19.45;;;;;;;;;;5132957;27;20187;-73
2022/06/11 11:32:28;;;;;;;19.73;18.52;;;;;;;;;;5133855;27;20239;-72
2022/06/11 11:34:55;;;;;;;18.63;17.52;;;;;;;;;;5133460;27;20192;-73
2022/06/11 11:37:24;;;;;;;18.98;17.77;;;;;;;;;;5133446;27;20655;-72
2022/06/11 11:39:52;;;;;;;22.95;21.25;;;;;;;;;;5133342;27;20222;-72
2022/06/11 11:42:23;;;;;;;22.38;20.77;;;;;;;;;;5133707;27;20192;-73
2022/06/11 11:44:51;;;;;;;20.48;19.08;;;;;;;;;;5133411;27;20184;-72
2022/06/11 11:47:20;;;;;;;18.10;16.90;;;;;;;;;;5133603;27;20279;-73
2022/06/11 11:49:50;;;;;;;18.92;17.63;;;;;;;;;;5133227;27;20257;-73
2022/06/11 11:52:19;;;;;;;20.13;18.73;;;;;;;;;;5133433;27;20216;-72
2022/06/11 11:54:51;;;;;;;19.67;18.27;;;;;;;;;;5133156;27;20241;-74
2022/06/11 11:57:22;;;;;;;20.20;18.80;;;;;;;;;;5133981;27;20185;-73
2022/06/11 11:59:50;;;;;;;19.50;18.20;;;;;;;;;;5133193;27;20223;-73
2022/06/11 12:02:19;;;;;;;19.13;17.92;;;;;;;;;;5133033;27;20196;-74
2022/06/11 12:04:50;;;;;;;18.15;17.00;;;;;;;;;;5133377;27;20269;-74
2022/06/11 12:07:19;;;;;;;17.95;16.85;;;;;;;;;;5133067;27;20184;-74
2022/06/11 12:09:49;;;;;;;19.17;17.98;;;;;;;;;;5133023;27;20199;-74
2022/06/11 12:12:19;;;;;;;18.75;17.55;;;;;;;;;;5133594;28;20224;-75
2022/06/11 12:14:49;;;;;;;19.90;18.60;;;;;;;;;;5132974;28;20184;-75
2022/06/11 12:17:19;;;;;;;20.10;18.90;;;;;;;;;;5132905;28;20196;-74
2022/06/11 12:19:50;;;;;;;20.50;19.30;;;;;;;;;;5132895;28;20203;-75
2022/06/11 12:22:22;;;;;;;18.73;17.63;;;;;;;;;;5132895;28;20196;-74
2022/06/11 12:24:50;;;;;;;19.08;17.98;;;;;;;;;;5133121;28;20185;-75
2022/06/11 12:27:22;;;;;;;19.08;17.98;;;;;;;;;;5132899;28;20646;-74
2022/06/11 12:29:51;;;;;;;19.70;18.50;;;;;;;;;;5133122;28;20203;-74
2022/06/11 12:32:19;;;;;;;19.63;18.42;;;;;;;;;;5132741;28;20263;-77
2022/06/11 12:34:47;;;;;;;18.60;17.50;;;;;;;;;;5132726;28;20192;-75
2022/06/11 12:37:18;;;;;;;18.90;17.70;;;;;;;;;;5132739;28;20279;-75
2022/06/11 12:39:49;;;;;;;17.52;16.52;;;;;;;;;;5133382;27;20248;-75
2022/06/11 12:42:20;;;;;;;17.35;16.35;;;;;;;;;;5136907;27;20189;-75
2022/06/11 12:45:03;;;;;;;17.17;16.17;;;;;;;;;;5136850;27;20212;-76
2022/06/11 12:47:38;;;;;;;16.42;15.43;;;;;;;;;;5136759;27;20238;-75
2022/06/11 12:50:14;;;;;;;18.48;17.38;;;;;;;;;;5136948;27;20191;-75
2022/06/11 12:52:45;;;;;;;18.70;17.60;;;;;;;;;;5136622;27;20184;-76
2022/06/11 12:55:17;;;;;;;18.58;17.50;;;;;;;;;;5136532;27;20201;-76
2022/06/11 12:57:51;;;;;;;17.83;16.73;;;;;;;;;;5136593;27;20674;-76
2022/06/11 13:00:37;;;;;;;28.52;26.92;;;;;;;;;;5136509;27;20194;-75
2022/06/11 13:03:13;;;;;;;18.55;17.45;;;;;;;;;;5136751;27;20185;-75
2022/06/11 13:05:48;;;;;;;19.08;17.88;;;;;;;;;;5136426;27;20184;-74
2022/06/11 13:08:28;;;;;;;19.92;18.63;;;;;;;;;;5136352;27;20191;-75
2022/06/11 13:11:00;;;;;;;21.10;19.70;;;;;;;;;;5136240;27;20215;-75
2022/06/11 13:13:37;;;;;;;19.50;18.30;;;;;;;;;;5136093;27;20281;-76
2022/06/11 13:16:09;;;;;;;20.23;18.92;;;;;;;;;;5136525;27;20192;-75
2022/06/11 13:18:42;;;;;;;20.20;18.90;;;;;;;;;;5136114;27;20192;-76
2022/06/11 13:21:11;;;;;;;19.77;18.58;;;;;;;;;;5136424;27;20249;-76
2022/06/11 13:23:42;;;;;;;18.92;17.73;;;;;;;;;;5135977;27;20192;-76
2022/06/11 13:26:12;;;;;;;19.65;18.45;;;;;;;;;;5136587;27;20602;-76
2022/06/11 13:28:47;;;;;;;18.48;17.45;;;;;;;;;;5135849;27;20196;-74
2022/06/11 13:31:22;;;;;;;17.35;16.38;;;;;;;;;;5136139;27;20300;-76
2022/06/11 13:33:52;;;;;;;17.17;16.17;;;;;;;;;;5135843;27;20185;-76
2022/06/11 13:36:27;;;;;;;17.00;16.10;;;;;;;;;;5135844;27;20193;-78
2022/06/11 13:39:00;;;;;;;16.73;15.82;;;;;;;;;;5135738;27;20272;-77
2022/06/11 13:41:34;;;;;;;16.75;15.75;;;;;;;;;;5136110;27;20339;-75
2022/06/11 13:44:11;;;;;;;18.30;17.20;;;;;;;;;;5135735;27;20189;-76
2022/06/11 13:46:44;;;;;;;17.60;16.60;;;;;;;;;;5135966;27;20527;-78
2022/06/11 13:49:22;;;;;;;17.80;16.80;;;;;;;;;;5135575;27;20227;-77
2022/06/11 13:51:53;;;;;;;18.15;17.05;;;;;;;;;;5135194;27;20299;-77
2022/06/11 13:57:23;;;;;;;18.10;17.00;;;;;;;;;;5135830;27;20183;-76
2022/06/11 13:59:57;;;;;;;19.35;18.15;;;;;;;;;;5135395;27;20642;-77
2022/06/11 14:02:36;;;;;;;18.73;17.63;;;;;;;;;;5135318;27;20220;-77
2022/06/11 14:05:05;;;;;;;19.85;18.55;;;;;;;;;;5135288;27;20192;-77
2022/06/11 14:07:33;;;;;;;20.00;18.70;;;;;;;;;;5135184;27;20193;-76
2022/06/11 14:10:24;;;;;;;22.90;21.30;;;;;;;;;;5135166;27;20196;-76
2022/06/11 14:12:51;;;;;;;19.98;18.67;;;;;;;;;;5134789;27;20239;-76
2022/06/11 14:15:26;;;;;;;21.52;20.13;;;;;;;;;;5135032;27;20232;-76
2022/06/11 14:17:56;;;;;;;21.75;20.25;;;;;;;;;;5135291;27;20199;-76
2022/06/11 14:20:25;;;;;;;21.08;19.67;;;;;;;;;;5135253;27;20203;-76
2022/06/11 14:22:53;;;;;;;20.42;19.13;;;;;;;;;;5135349;27;20238;-77
2022/06/11 14:25:35;;;;;;;20.90;19.60;;;;;;;;;;5134977;27;20744;-75
2022/06/11 14:28:22;;;;;;;19.30;18.10;;;;;;;;;;5135323;27;20196;-76
2022/06/11 14:31:03;;;;;;;23.02;21.50;;;;;;;;;;5134618;27;20225;-77
2022/06/11 14:33:33;;;;;;;19.88;18.63;;;;;;;;;;5135262;27;20540;-77
2022/06/11 14:36:03;;;;;;;19.50;18.30;;;;;;;;;;5134561;27;20189;-77
2022/06/11 14:38:41;;;;;;;19.85;18.65;;;;;;;;;;5134611;27;20199;-78